createdAt,value
2019-03-01T00:00:01.392Z,13.2
2019-03-01T00:00:50.822Z,13.1
2019-03-01T00:01:40.933Z,13.1
2019-03-01T00:02:30.990Z,13.1
2019-03-01T00:03:21.581Z,13.1
2019-03-01T00:04:11.077Z,13.1
2019-03-01T00:05:01.246Z,13.1
2019-03-01T00:05:51.157Z,13.1
2019-03-01T00:06:41.505Z,13.1
2019-03-01T00:07:31.852Z,13.1
2019-03-01T00:08:21.432Z,13.1
2019-03-01T00:09:11.076Z,13.1
2019-03-01T00:10:01.391Z,13.1
2019-03-01T00:10:51.549Z,13.1
2019-03-01T00:11:41.604Z,13.1
2019-03-01T00:12:31.891Z,13.1
2019-03-01T00:13:21.979Z,13.1
2019-03-01T00:14:12.344Z,13.1
2019-03-01T00:15:01.825Z,13.1
2019-03-01T00:15:52.166Z,13.1
2019-03-01T00:16:41.345Z,13.1
2019-03-01T00:17:31.972Z,13.1
2019-03-01T00:18:20.893Z,13.1
2019-03-01T00:19:10.860Z,13.1
2019-03-01T00:20:02.529Z,13.1
2019-03-01T00:20:51.509Z,13.1
2019-03-01T00:21:41.855Z,13.1
2019-03-01T00:22:32.255Z,13.1
2019-03-01T00:23:22.234Z,13.1
2019-03-01T00:24:11.735Z,13.1
2019-03-01T00:25:01.625Z,13.1
2019-03-01T00:25:52.459Z,13.1
2019-03-01T00:26:42.294Z,13.1
2019-03-01T00:27:31.139Z,13.1
2019-03-01T00:28:22.029Z,13.1
2019-03-01T00:29:12.683Z,13.1
2019-03-01T00:30:01.934Z,13.1
2019-03-01T00:30:51.947Z,13.1
2019-03-01T00:31:43.371Z,13.1
2019-03-01T00:32:32.386Z,13.1
2019-03-01T00:33:22.982Z,13.1
2019-03-01T00:34:13.050Z,13.1
2019-03-01T00:35:03.482Z,13.1
2019-03-01T00:35:53.672Z,13.1
2019-03-01T00:36:42.947Z,13.1
2019-03-01T00:37:31.842Z,13.1
2019-03-01T00:38:22.725Z,13.1
2019-03-01T00:39:12.544Z,13.1
2019-03-01T00:40:02.932Z,13.1
2019-03-01T00:40:52.929Z,13.1
2019-03-01T00:41:43.861Z,13.1
2019-03-01T00:42:32.445Z,13.1
2019-03-01T00:43:24.193Z,13.1
2019-03-01T00:44:12.867Z,13.1
2019-03-01T00:45:04.225Z,13.1
2019-03-01T00:45:53.884Z,13.1
2019-03-01T00:46:43.123Z,13.1
2019-03-01T00:47:33.383Z,13.1
2019-03-01T00:48:22.906Z,13.1
2019-03-01T00:49:13.463Z,13.1
2019-03-01T00:50:03.271Z,13.1
2019-03-01T00:50:53.396Z,13.1
2019-03-01T00:51:43.648Z,13.1
2019-03-01T00:52:34.573Z,13.1
2019-03-01T00:53:24.411Z,13.1
2019-03-01T00:54:14.127Z,13.1
2019-03-01T00:55:03.913Z,13.1
2019-03-01T00:55:54.816Z,13.1
2019-03-01T00:56:43.443Z,13.1
2019-03-01T00:57:34.309Z,13.1
2019-03-01T00:58:23.858Z,13.1
2019-03-01T00:59:14.193Z,13.1
2019-03-01T01:00:04.092Z,13.1
2019-03-01T01:00:54.847Z,13.1
2019-03-01T01:01:43.255Z,13.1
2019-03-01T01:02:34.748Z,13.1
2019-03-01T01:03:24.895Z,13.1
2019-03-01T01:04:14.244Z,13
2019-03-01T01:05:04.634Z,13
2019-03-01T01:05:54.684Z,13
2019-03-01T01:06:44.435Z,13.1
2019-03-01T01:07:34.815Z,13.1
2019-03-01T01:08:25.382Z,13.1
2019-03-01T01:09:15.202Z,13
2019-03-01T01:10:19.950Z,13
2019-03-01T01:10:56.132Z,13.1
2019-03-01T01:11:45.087Z,13
2019-03-01T01:12:35.378Z,13.1
2019-03-01T01:13:24.920Z,13.1
2019-03-01T01:14:14.950Z,13.1
2019-03-01T01:15:06.342Z,13.1
2019-03-01T01:15:55.374Z,13
2019-03-01T01:16:45.701Z,13
2019-03-01T01:17:36.000Z,13
2019-03-01T01:18:25.810Z,13
2019-03-01T01:19:14.997Z,13
2019-03-01T01:20:06.121Z,13
2019-03-01T01:20:56.209Z,13
2019-03-01T01:21:45.734Z,13
2019-03-01T01:22:36.636Z,13.1
2019-03-01T01:23:26.426Z,13.1
2019-03-01T01:24:15.134Z,13.1
2019-03-01T01:25:06.561Z,13.1
2019-03-01T01:25:55.696Z,13.1
2019-03-01T01:26:45.915Z,13.1
2019-03-01T01:27:35.106Z,13.1
2019-03-01T01:28:26.086Z,13
2019-03-01T01:29:16.381Z,13.1
2019-03-01T01:30:06.762Z,13
2019-03-01T01:30:56.103Z,13
2019-03-01T01:31:46.200Z,13
2019-03-01T01:32:36.820Z,13.1
2019-03-01T01:33:26.901Z,13
2019-03-01T01:34:16.926Z,13
2019-03-01T01:35:06.851Z,13
2019-03-01T01:35:56.686Z,13.1
2019-03-01T01:36:47.031Z,13.1
2019-03-01T01:37:36.908Z,13.1
2019-03-01T01:38:26.371Z,13.1
2019-03-01T01:39:16.388Z,13.1
2019-03-01T01:40:07.348Z,13
2019-03-01T01:40:56.566Z,13
2019-03-01T01:41:47.178Z,13
2019-03-01T01:42:36.655Z,13
2019-03-01T01:43:28.736Z,13
2019-03-01T01:44:16.771Z,13
2019-03-01T01:45:07.603Z,13
2019-03-01T01:45:58.846Z,13
2019-03-01T01:46:48.035Z,13
2019-03-01T01:47:37.098Z,13
2019-03-01T01:48:27.991Z,13
2019-03-01T01:49:18.182Z,13
2019-03-01T01:50:07.347Z,13
2019-03-01T01:50:57.773Z,13
2019-03-01T01:51:47.633Z,13
2019-03-01T01:52:37.887Z,13
2019-03-01T01:53:28.773Z,13
2019-03-01T01:54:18.583Z,13
2019-03-01T01:55:08.713Z,13
2019-03-01T01:55:58.980Z,13
2019-03-01T01:56:49.050Z,13
2019-03-01T01:57:37.684Z,13
2019-03-01T01:58:28.846Z,12.9
2019-03-01T01:59:18.330Z,13
2019-03-01T02:00:08.871Z,13
2019-03-01T02:00:58.719Z,13
2019-03-01T02:01:48.781Z,13
2019-03-01T02:02:37.772Z,13
2019-03-01T02:03:28.058Z,13
2019-03-01T02:04:18.986Z,13
2019-03-01T02:05:08.202Z,13
2019-03-01T02:05:58.622Z,13
2019-03-01T02:06:49.994Z,13.1
2019-03-01T02:07:39.487Z,13
2019-03-01T02:08:29.592Z,13
2019-03-01T02:09:19.589Z,13
2019-03-01T02:10:09.673Z,13
2019-03-01T02:10:59.994Z,13
2019-03-01T02:11:49.806Z,13
2019-03-01T02:12:40.403Z,13
2019-03-01T02:13:29.599Z,12.9
2019-03-01T02:14:19.417Z,13
2019-03-01T02:15:09.158Z,13
2019-03-01T02:16:00.126Z,13
2019-03-01T02:16:50.209Z,13
2019-03-01T02:17:40.166Z,13
2019-03-01T02:18:29.366Z,13
2019-03-01T02:19:20.281Z,13
2019-03-01T02:20:10.096Z,13
2019-03-01T02:21:00.376Z,13
2019-03-01T02:21:49.641Z,13
2019-03-01T02:22:40.258Z,13
2019-03-01T02:23:30.618Z,13
2019-03-01T02:24:20.742Z,13
2019-03-01T02:25:10.185Z,13
2019-03-01T02:26:00.255Z,12.9
2019-03-01T02:26:50.853Z,12.9
2019-03-01T02:27:40.313Z,12.9
2019-03-01T02:28:30.115Z,12.9
2019-03-01T02:29:21.550Z,12.9
2019-03-01T02:30:10.972Z,12.9
2019-03-01T02:31:01.285Z,12.9
2019-03-01T02:31:50.217Z,13
2019-03-01T02:32:41.560Z,12.9
2019-03-01T02:33:31.143Z,13
2019-03-01T02:34:21.116Z,12.9
2019-03-01T02:35:11.448Z,12.9
2019-03-01T02:36:01.296Z,12.9
2019-03-01T02:36:51.615Z,12.9
2019-03-01T02:37:41.445Z,12.9
2019-03-01T02:38:31.705Z,12.9
2019-03-01T02:39:20.954Z,12.9
2019-03-01T02:40:10.728Z,12.9
2019-03-01T02:41:00.773Z,12.9
2019-03-01T02:41:51.660Z,12.9
2019-03-01T02:42:41.691Z,12.9
2019-03-01T02:43:31.278Z,12.9
2019-03-01T02:44:20.534Z,12.9
2019-03-01T02:45:10.895Z,12.9
2019-03-01T02:46:01.310Z,12.9
2019-03-01T02:46:50.727Z,12.9
2019-03-01T02:47:41.143Z,12.9
2019-03-01T02:48:31.468Z,12.9
2019-03-01T02:49:20.958Z,13
2019-03-01T02:50:11.022Z,12.9
2019-03-01T02:51:02.334Z,12.9
2019-03-01T02:51:51.701Z,12.9
2019-03-01T02:52:42.007Z,12.9
2019-03-01T02:53:31.989Z,12.9
2019-03-01T02:54:22.860Z,12.9
2019-03-01T02:55:12.107Z,12.9
2019-03-01T02:56:03.196Z,12.9
2019-03-01T02:56:53.310Z,13
2019-03-01T02:57:42.021Z,12.9
2019-03-01T02:58:31.972Z,12.9
2019-03-01T02:59:22.923Z,12.9
2019-03-01T03:00:12.942Z,12.9
2019-03-01T03:01:03.094Z,12.9
2019-03-01T03:01:53.315Z,12.9
2019-03-01T03:02:43.123Z,12.9
2019-03-01T03:03:33.244Z,12.9
2019-03-01T03:04:22.747Z,13
2019-03-01T03:07:55.975Z,12.9
2019-03-01T03:08:45.538Z,12.9
2019-03-01T03:09:35.860Z,12.9
2019-03-01T03:10:25.091Z,12.9
2019-03-01T03:11:15.951Z,12.9
2019-03-01T03:12:05.590Z,12.9
2019-03-01T03:12:56.361Z,12.9
2019-03-01T03:13:46.122Z,12.9
2019-03-01T03:14:36.221Z,12.9
2019-03-01T03:15:25.708Z,12.9
2019-03-01T03:16:16.289Z,12.9
2019-03-01T03:17:06.588Z,12.9
2019-03-01T03:17:56.523Z,12.9
2019-03-01T03:18:46.722Z,12.9
2019-03-01T03:19:36.805Z,12.9
2019-03-01T03:20:26.566Z,12.9
2019-03-01T03:21:16.097Z,12.9
2019-03-01T03:22:06.980Z,12.9
2019-03-01T03:22:55.175Z,12.9
2019-03-01T03:23:46.524Z,12.9
2019-03-01T03:24:36.915Z,12.9
2019-03-01T03:25:27.193Z,12.9
2019-03-01T03:26:16.653Z,12.9
2019-03-01T03:27:07.263Z,12.9
2019-03-01T03:27:57.230Z,12.9
2019-03-01T03:28:46.631Z,12.9
2019-03-01T03:29:37.008Z,12.9
2019-03-01T03:30:27.401Z,12.9
2019-03-01T03:31:17.068Z,12.9
2019-03-01T03:32:07.678Z,12.9
2019-03-01T03:32:57.249Z,12.9
2019-03-01T03:33:48.242Z,12.9
2019-03-01T03:34:37.577Z,12.9
2019-03-01T03:35:28.205Z,12.9
2019-03-01T03:36:17.480Z,12.9
2019-03-01T03:37:07.438Z,12.9
2019-03-01T03:37:57.374Z,12.9
2019-03-01T03:38:47.365Z,12.9
2019-03-01T03:39:37.332Z,12.9
2019-03-01T03:40:26.891Z,12.9
2019-03-01T03:41:16.910Z,12.9
2019-03-01T03:42:06.967Z,12.9
2019-03-01T03:42:57.730Z,12.9
2019-03-01T03:43:46.599Z,12.9
2019-03-01T03:44:38.209Z,12.9
2019-03-01T03:45:27.883Z,12.9
2019-03-01T03:46:17.869Z,12.9
2019-03-01T03:47:07.324Z,12.9
2019-03-01T03:47:57.794Z,12.9
2019-03-01T03:48:48.120Z,12.9
2019-03-01T03:49:37.573Z,12.9
2019-03-01T03:50:28.718Z,12.9
2019-03-01T03:51:18.280Z,12.9
2019-03-01T03:52:07.734Z,12.9
2019-03-01T03:52:58.629Z,12.9
2019-03-01T03:53:48.724Z,12.9
2019-03-01T03:54:38.673Z,12.9
2019-03-01T03:55:28.344Z,12.9
2019-03-01T03:56:18.471Z,12.9
2019-03-01T03:57:08.046Z,12.9
2019-03-01T03:57:58.621Z,12.9
2019-03-01T03:58:48.788Z,12.9
2019-03-01T03:59:38.849Z,12.9
2019-03-01T04:00:28.621Z,12.9
2019-03-01T04:01:18.333Z,12.9
2019-03-01T04:02:08.216Z,12.9
2019-03-01T04:02:58.769Z,12.9
2019-03-01T04:03:47.683Z,12.9
2019-03-01T04:04:38.841Z,12.9
2019-03-01T04:05:28.786Z,12.9
2019-03-01T04:06:19.023Z,12.9
2019-03-01T04:07:08.280Z,12.9
2019-03-01T04:07:58.500Z,12.9
2019-03-01T04:08:49.880Z,12.9
2019-03-01T04:09:39.741Z,12.9
2019-03-01T04:10:30.134Z,12.9
2019-03-01T04:11:20.260Z,12.9
2019-03-01T04:12:10.413Z,12.9
2019-03-01T04:13:00.295Z,12.9
2019-03-01T04:13:50.203Z,12.9
2019-03-01T04:14:40.370Z,12.9
2019-03-01T04:15:30.105Z,12.9
2019-03-01T04:16:20.153Z,12.9
2019-03-01T04:17:10.358Z,12.9
2019-03-01T04:18:00.572Z,12.9
2019-03-01T04:18:49.728Z,12.9
2019-03-01T04:19:39.853Z,12.9
2019-03-01T04:20:29.601Z,12.9
2019-03-01T04:21:20.222Z,12.9
2019-03-01T04:22:10.622Z,12.9
2019-03-01T04:23:00.625Z,12.9
2019-03-01T04:23:51.203Z,12.9
2019-03-01T04:24:40.500Z,12.9
2019-03-01T04:25:30.400Z,12.9
2019-03-01T04:26:19.930Z,12.9
2019-03-01T04:27:10.759Z,12.9
2019-03-01T04:28:00.651Z,12.9
2019-03-01T04:28:50.744Z,12.9
2019-03-01T04:29:41.019Z,12.9
2019-03-01T04:30:30.940Z,12.9
2019-03-01T04:31:20.904Z,12.9
2019-03-01T04:32:11.430Z,12.9
2019-03-01T04:33:00.688Z,12.9
2019-03-01T04:33:51.617Z,12.9
2019-03-01T04:34:41.151Z,12.9
2019-03-01T04:35:31.366Z,12.9
2019-03-01T04:36:21.216Z,12.9
2019-03-01T04:37:12.090Z,12.9
2019-03-01T04:38:01.681Z,12.9
2019-03-01T04:38:51.157Z,12.9
2019-03-01T04:39:41.379Z,12.9
2019-03-01T04:40:31.576Z,12.9
2019-03-01T04:41:21.553Z,12.9
2019-03-01T04:42:12.384Z,12.9
2019-03-01T04:43:01.984Z,12.9
2019-03-01T04:43:52.240Z,12.9
2019-03-01T04:44:42.003Z,12.9
2019-03-01T04:45:31.298Z,12.9
2019-03-01T04:46:22.091Z,12.9
2019-03-01T04:47:11.618Z,12.9
2019-03-01T04:48:02.568Z,12.9
2019-03-01T04:48:52.578Z,12.9
2019-03-01T04:49:42.541Z,13
2019-03-01T04:50:32.146Z,13
2019-03-01T04:51:22.523Z,13
2019-03-01T04:52:12.241Z,13
2019-03-01T04:53:02.050Z,13
2019-03-01T04:53:52.420Z,13
2019-03-01T04:54:41.590Z,13
2019-03-01T04:55:32.755Z,13
2019-03-01T04:56:24.972Z,13
2019-03-01T04:57:13.339Z,12.9
2019-03-01T04:58:02.955Z,13
2019-03-01T04:58:52.728Z,12.9
2019-03-01T04:59:42.463Z,13
2019-03-01T05:00:33.595Z,13
2019-03-01T05:01:22.825Z,13
2019-03-01T05:02:12.938Z,13
2019-03-01T05:03:03.058Z,13
2019-03-01T05:03:53.580Z,13
2019-03-01T05:04:43.608Z,13
2019-03-01T05:05:32.590Z,12.9
2019-03-01T05:06:23.503Z,13
2019-03-01T05:07:13.219Z,12.9
2019-03-01T05:08:03.605Z,12.9
2019-03-01T05:08:53.779Z,12.9
2019-03-01T05:09:43.694Z,12.9
2019-03-01T05:10:33.994Z,12.9
2019-03-01T05:11:23.747Z,13
2019-03-01T05:12:14.375Z,12.9
2019-03-01T05:13:05.081Z,13
2019-03-01T05:13:54.198Z,13
2019-03-01T05:14:44.257Z,12.9
2019-03-01T05:15:34.639Z,13
2019-03-01T05:16:23.845Z,12.9
2019-03-01T05:17:14.207Z,12.9
2019-03-01T05:18:04.561Z,13
2019-03-01T05:18:54.841Z,12.9
2019-03-01T05:19:44.886Z,12.9
2019-03-01T05:20:37.807Z,12.9
2019-03-01T05:21:25.065Z,13
2019-03-01T05:22:14.059Z,12.9
2019-03-01T05:23:05.169Z,13
2019-03-01T05:23:54.691Z,13
2019-03-01T05:24:44.446Z,13
2019-03-01T05:25:33.950Z,13
2019-03-01T05:26:25.111Z,13
2019-03-01T05:27:15.429Z,13
2019-03-01T05:28:05.771Z,13.1
2019-03-01T05:28:55.578Z,13
2019-03-01T05:29:44.748Z,13
2019-03-01T05:30:35.378Z,13
2019-03-01T05:31:25.137Z,13
2019-03-01T05:32:15.468Z,13
2019-03-01T05:33:05.847Z,13
2019-03-01T05:33:57.300Z,13
2019-03-01T05:34:45.941Z,13
2019-03-01T05:35:35.171Z,13
2019-03-01T05:36:25.521Z,13
2019-03-01T05:37:15.323Z,13
2019-03-01T05:38:05.574Z,13
2019-03-01T05:38:55.955Z,13
2019-03-01T05:39:46.588Z,13.1
2019-03-01T05:40:36.431Z,13
2019-03-01T05:41:25.030Z,13
2019-03-01T05:42:16.195Z,13
2019-03-01T05:43:06.090Z,13
2019-03-01T05:43:56.287Z,13.1
2019-03-01T05:44:45.891Z,13
2019-03-01T05:45:35.904Z,13.1
2019-03-01T05:46:25.946Z,13
2019-03-01T05:47:16.261Z,13
2019-03-01T05:48:06.904Z,13
2019-03-01T05:48:56.651Z,13.1
2019-03-01T05:49:47.263Z,13
2019-03-01T05:50:36.529Z,13.1
2019-03-01T05:51:26.552Z,13
2019-03-01T05:52:17.424Z,13
2019-03-01T05:53:07.533Z,13
2019-03-01T05:53:56.169Z,13
2019-03-01T05:54:47.276Z,13
2019-03-01T05:55:36.560Z,13.1
2019-03-01T05:56:27.168Z,13
2019-03-01T05:57:17.738Z,13
2019-03-01T05:58:15.974Z,13
2019-03-01T05:58:57.326Z,13
2019-03-01T05:59:46.556Z,13
2019-03-01T06:00:37.983Z,13
2019-03-01T06:01:27.750Z,13
2019-03-01T06:02:17.560Z,13
2019-03-01T06:03:07.898Z,13
2019-03-01T06:06:10.975Z,13
2019-03-01T06:06:44.915Z,13
2019-03-01T06:07:50.913Z,13
2019-03-01T06:08:25.956Z,12.9
2019-03-01T06:09:16.040Z,12.9
2019-03-01T06:10:05.870Z,12.9
2019-03-01T06:11:00.692Z,13
2019-03-01T06:11:45.503Z,13
2019-03-01T06:12:34.980Z,13
2019-03-01T06:13:26.194Z,13
2019-03-01T06:14:16.794Z,13.1
2019-03-01T06:15:06.192Z,13.1
2019-03-01T06:15:55.819Z,13.1
2019-03-01T06:16:48.398Z,13.1
2019-03-01T06:17:35.887Z,13.1
2019-03-01T06:18:26.815Z,13
2019-03-01T06:19:16.002Z,13.1
2019-03-01T06:20:07.057Z,13.1
2019-03-01T06:20:56.405Z,13.1
2019-03-01T06:21:48.932Z,13.1
2019-03-01T06:22:36.515Z,13.1
2019-03-01T06:23:26.969Z,13.1
2019-03-01T06:24:16.399Z,13.1
2019-03-01T06:25:06.563Z,13.1
2019-03-01T06:25:56.317Z,13.1
2019-03-01T06:26:46.511Z,13
2019-03-01T06:27:36.927Z,13
2019-03-01T06:28:26.409Z,13
2019-03-01T06:29:16.987Z,13
2019-03-01T06:30:08.067Z,13
2019-03-01T06:30:59.986Z,13
2019-03-01T06:31:47.157Z,12.9
2019-03-01T06:32:37.554Z,12.9
2019-03-01T06:33:27.551Z,13
2019-03-01T06:34:16.766Z,12.9
2019-03-01T06:35:07.044Z,12.9
2019-03-01T06:35:57.906Z,13
2019-03-01T06:36:47.493Z,13
2019-03-01T06:37:38.144Z,13
2019-03-01T06:38:27.623Z,13
2019-03-01T06:39:17.949Z,13
2019-03-01T06:40:08.168Z,12.9
2019-03-01T06:40:57.791Z,13
2019-03-01T06:41:48.386Z,13
2019-03-01T06:42:37.868Z,13
2019-03-01T06:43:28.905Z,13
2019-03-01T06:44:17.196Z,13
2019-03-01T06:45:07.555Z,13
2019-03-01T06:45:57.371Z,13.1
2019-03-01T06:46:48.716Z,13
2019-03-01T06:47:37.953Z,13
2019-03-01T06:48:27.498Z,13
2019-03-01T06:49:18.073Z,13
2019-03-01T06:50:09.359Z,13
2019-03-01T06:50:58.458Z,13
2019-03-01T06:51:47.832Z,13
2019-03-01T06:52:38.881Z,13
2019-03-01T06:53:29.190Z,13
2019-03-01T06:54:19.568Z,13
2019-03-01T06:55:08.965Z,13
2019-03-01T06:55:58.533Z,13
2019-03-01T06:56:48.055Z,13
2019-03-01T06:57:38.618Z,13
2019-03-01T06:58:29.619Z,13
2019-03-01T06:59:18.752Z,13
2019-03-01T07:00:09.197Z,13
2019-03-01T07:00:59.119Z,13
2019-03-01T07:01:49.493Z,13
2019-03-01T07:02:39.545Z,13
2019-03-01T07:03:28.845Z,13
2019-03-01T07:06:05.483Z,12.9
2019-03-01T07:06:45.764Z,13.1
2019-03-01T07:07:35.847Z,13.1
2019-03-01T07:08:25.182Z,13.1
2019-03-01T07:09:16.254Z,13.1
2019-03-01T07:10:06.480Z,13
2019-03-01T07:10:55.794Z,13.1
2019-03-01T07:11:46.115Z,13.1
2019-03-01T07:12:36.434Z,13.1
2019-03-01T07:13:26.489Z,13
2019-03-01T07:14:15.736Z,13
2019-03-01T07:15:10.545Z,13
2019-03-01T07:15:56.386Z,13
2019-03-01T07:16:46.724Z,13
2019-03-01T07:17:35.387Z,13
2019-03-01T07:18:26.422Z,13
2019-03-01T07:19:16.841Z,13
2019-03-01T07:20:09.187Z,13
2019-03-01T07:20:57.066Z,13
2019-03-01T07:21:45.941Z,13
2019-03-01T07:22:36.876Z,13.1
2019-03-01T07:23:26.353Z,13
2019-03-01T07:24:18.681Z,13
2019-03-01T07:25:07.411Z,13.1
2019-03-01T07:25:58.995Z,13.1
2019-03-01T07:26:46.604Z,13
2019-03-01T07:27:36.148Z,13
2019-03-01T07:28:26.973Z,13.1
2019-03-01T07:29:16.376Z,13.1
2019-03-01T07:30:07.178Z,13.1
2019-03-01T07:30:56.875Z,13.1
2019-03-01T07:31:46.138Z,13.1
2019-03-01T07:32:37.245Z,13.1
2019-03-01T07:33:27.341Z,13.1
2019-03-01T07:34:16.613Z,13.1
2019-03-01T07:35:07.046Z,13.1
2019-03-01T07:35:57.740Z,13.1
2019-03-01T07:36:46.993Z,13.1
2019-03-01T07:37:37.894Z,13.1
2019-03-01T07:38:28.025Z,13.1
2019-03-01T07:39:16.892Z,13.1
2019-03-01T07:40:07.260Z,13.1
2019-03-01T07:40:57.591Z,13.1
2019-03-01T07:41:50.029Z,13.1
2019-03-01T07:42:37.991Z,13.2
2019-03-01T07:43:28.279Z,13.3
2019-03-01T07:44:18.045Z,13.3
2019-03-01T07:45:08.611Z,13.4
2019-03-01T07:45:58.782Z,13.5
2019-03-01T07:46:59.802Z,13.6
2019-03-01T07:47:40.780Z,13.6
2019-03-01T07:48:28.606Z,13.6
2019-03-01T07:49:23.209Z,13.6
2019-03-01T07:50:08.476Z,13.8
2019-03-01T07:51:06.265Z,13.8
2019-03-01T07:51:48.337Z,13.8
2019-03-01T07:52:38.643Z,13.8
2019-03-01T07:53:28.443Z,13.8
2019-03-01T07:54:28.297Z,13.8
2019-03-01T07:55:11.549Z,13.8
2019-03-01T07:56:05.610Z,13.9
2019-03-01T07:56:49.209Z,13.9
2019-03-01T07:57:38.569Z,13.9
2019-03-01T07:58:34.253Z,13.9
2019-03-01T07:59:18.809Z,13.9
2019-03-01T08:00:16.204Z,13.9
2019-03-01T08:01:03.089Z,13.9
2019-03-01T08:01:49.224Z,13.9
2019-03-01T08:02:49.267Z,13.9
2019-03-01T08:03:29.647Z,13.9
2019-03-01T08:04:23.644Z,13.9
2019-03-01T08:05:16.504Z,13.9
2019-03-01T08:05:59.841Z,13.9
2019-03-01T08:06:55.692Z,13.9
2019-03-01T08:07:39.656Z,13.9
2019-03-01T08:08:29.744Z,13.9
2019-03-01T08:09:20.329Z,13.9
2019-03-01T08:10:09.564Z,13.9
2019-03-01T08:11:06.494Z,13.9
2019-03-01T08:11:49.391Z,13.9
2019-03-01T08:12:50.286Z,13.9
2019-03-01T08:13:31.536Z,13.9
2019-03-01T08:14:20.059Z,13.9
2019-03-01T08:15:17.031Z,13.9
2019-03-01T08:15:59.937Z,13.9
2019-03-01T08:16:57.366Z,13.9
2019-03-01T08:17:41.178Z,13.9
2019-03-01T08:18:30.223Z,13.9
2019-03-01T08:19:29.643Z,13.9
2019-03-01T08:20:09.788Z,13.9
2019-03-01T08:21:01.283Z,13.9
2019-03-01T08:21:57.143Z,13.9
2019-03-01T08:23:02.316Z,13.9
2019-03-01T08:23:37.606Z,13.9
2019-03-01T08:24:20.943Z,13.9
2019-03-01T08:25:10.038Z,13.9
2019-03-01T08:26:09.723Z,13.9
2019-03-01T08:26:51.953Z,13.9
2019-03-01T08:27:51.221Z,13.9
2019-03-01T08:28:30.652Z,13.9
2019-03-01T08:29:21.055Z,13.9
2019-03-01T08:30:18.690Z,13.9
2019-03-01T08:31:01.072Z,14
2019-03-01T08:31:57.761Z,14.1
2019-03-01T08:32:41.679Z,14.1
2019-03-01T08:33:30.917Z,14.1
2019-03-01T08:34:26.652Z,14.1
2019-03-01T08:35:14.027Z,14.1
2019-03-01T08:36:08.845Z,14.2
2019-03-01T08:36:52.264Z,14.2
2019-03-01T08:37:42.402Z,14.2
2019-03-01T08:38:39.567Z,14.2
2019-03-01T08:39:21.116Z,14.2
2019-03-01T08:40:18.169Z,14.2
2019-03-01T08:41:02.294Z,14.2
2019-03-01T08:41:51.737Z,14.2
2019-03-01T08:42:44.308Z,14.3
2019-03-01T08:43:31.805Z,14.2
2019-03-01T08:44:29.366Z,14.3
2019-03-01T08:45:11.972Z,14.3
2019-03-01T08:46:05.357Z,14.3
2019-03-01T08:46:54.739Z,14.3
2019-03-01T08:47:42.417Z,14.3
2019-03-01T08:48:39.145Z,14.3
2019-03-01T08:49:22.074Z,14.3
2019-03-01T08:50:12.067Z,14.3
2019-03-01T08:51:03.734Z,14.3
2019-03-01T08:51:51.294Z,14.3
2019-03-01T08:52:48.532Z,14.3
2019-03-01T08:53:33.369Z,14.3
2019-03-01T08:54:32.074Z,14.3
2019-03-01T08:55:12.408Z,14.3
2019-03-01T08:56:03.332Z,14.3
2019-03-01T08:56:58.834Z,14.3
2019-03-01T08:57:52.668Z,14.3
2019-03-01T08:58:32.591Z,14.3
2019-03-01T08:59:26.954Z,14.3
2019-03-01T09:00:13.526Z,14.3
2019-03-01T09:01:16.661Z,14.3
2019-03-01T09:01:53.606Z,14.3
2019-03-01T09:02:43.239Z,14.3
2019-03-01T09:03:33.748Z,14.4
2019-03-01T09:04:28.786Z,14.4
2019-03-01T09:05:18.770Z,14.4
2019-03-01T09:06:03.476Z,14.4
2019-03-01T09:06:53.804Z,14.4
2019-03-01T09:07:44.086Z,14.4
2019-03-01T09:08:34.920Z,14.4
2019-03-01T09:09:29.850Z,14.4
2019-03-01T09:10:14.008Z,14.4
2019-03-01T09:11:11.431Z,14.4
2019-03-01T09:11:54.190Z,14.4
2019-03-01T09:12:44.120Z,14.4
2019-03-01T09:13:35.997Z,14.4
2019-03-01T09:14:29.521Z,14.4
2019-03-01T09:15:16.390Z,14.5
2019-03-01T09:16:05.881Z,14.5
2019-03-01T09:16:54.420Z,14.5
2019-03-01T09:17:44.243Z,14.6
2019-03-01T09:18:36.361Z,14.6
2019-03-01T09:19:31.911Z,14.6
2019-03-01T09:20:15.170Z,14.6
2019-03-01T09:21:20.741Z,14.6
2019-03-01T09:21:57.014Z,14.6
2019-03-01T09:22:44.896Z,14.6
2019-03-01T09:23:35.422Z,14.6
2019-03-01T09:24:32.107Z,14.6
2019-03-01T09:25:17.304Z,14.6
2019-03-01T09:26:04.813Z,14.6
2019-03-01T09:27:02.081Z,14.6
2019-03-01T09:27:45.171Z,14.6
2019-03-01T09:28:45.134Z,14.6
2019-03-01T09:29:27.782Z,14.6
2019-03-01T09:30:15.181Z,14.6
2019-03-01T09:31:05.724Z,14.6
2019-03-01T09:32:04.276Z,14.6
2019-03-01T09:32:45.852Z,14.6
2019-03-01T09:33:35.274Z,14.6
2019-03-01T09:34:32.021Z,14.7
2019-03-01T09:35:16.489Z,14.7
2019-03-01T09:36:06.049Z,14.7
2019-03-01T09:37:02.937Z,14.7
2019-03-01T09:37:45.906Z,14.8
2019-03-01T09:38:35.368Z,14.7
2019-03-01T09:39:26.922Z,14.7
2019-03-01T09:40:16.654Z,14.7
2019-03-01T09:41:12.843Z,14.7
2019-03-01T09:42:08.796Z,14.7
2019-03-01T09:42:53.826Z,14.8
2019-03-01T09:43:36.398Z,14.7
2019-03-01T09:44:26.621Z,14.7
2019-03-01T09:45:23.702Z,14.8
2019-03-01T09:46:06.433Z,14.8
2019-03-01T09:47:02.586Z,14.8
2019-03-01T09:47:47.080Z,14.8
2019-03-01T09:48:37.214Z,14.8
2019-03-01T09:49:33.041Z,14.8
2019-03-01T09:50:16.703Z,14.8
2019-03-01T09:51:13.183Z,14.8
2019-03-01T09:51:57.708Z,14.8
2019-03-01T09:52:48.995Z,14.8
2019-03-01T09:53:42.183Z,14.8
2019-03-01T09:54:27.286Z,14.8
2019-03-01T09:55:16.824Z,14.8
2019-03-01T09:56:14.868Z,14.8
2019-03-01T09:56:58.013Z,14.8
2019-03-01T09:57:45.873Z,14.8
2019-03-01T09:58:37.295Z,14.8
2019-03-01T09:59:26.921Z,14.8
2019-03-01T10:00:17.953Z,14.8
2019-03-01T10:01:08.323Z,14.8
2019-03-01T10:01:57.507Z,14.8
2019-03-01T10:02:48.129Z,14.8
2019-03-01T10:03:37.370Z,14.8
2019-03-01T10:04:26.861Z,14.8
2019-03-01T10:07:39.436Z,14.8
2019-03-01T10:07:49.875Z,14.8
2019-03-01T10:08:40.174Z,14.8
2019-03-01T12:06:55.071Z,15.3
2019-03-01T12:07:44.086Z,15.3
2019-03-01T12:08:34.978Z,15.3
2019-03-01T12:09:25.546Z,15.3
2019-03-01T12:10:15.935Z,15.3
2019-03-01T12:11:04.543Z,15.3
2019-03-01T12:11:55.738Z,15.3
2019-03-01T12:12:46.096Z,15.3
2019-03-01T12:13:34.756Z,15.3
2019-03-01T12:14:28.253Z,15.3
2019-03-01T12:15:15.918Z,15.3
2019-03-01T12:16:06.299Z,15.3
2019-03-01T12:16:55.780Z,15.4
2019-03-01T12:17:45.258Z,15.4
2019-03-01T12:18:35.600Z,15.3
2019-03-01T12:19:28.140Z,15.3
2019-03-01T12:20:16.545Z,15.4
2019-03-01T12:21:05.503Z,15.4
2019-03-01T12:21:56.163Z,15.4
2019-03-01T12:22:46.189Z,15.4
2019-03-01T12:23:36.279Z,15.4
2019-03-01T12:24:26.053Z,15.4
2019-03-01T12:25:18.905Z,15.4
2019-03-01T12:26:06.460Z,15.4
2019-03-01T12:26:56.262Z,15.4
2019-03-01T12:27:46.887Z,15.4
2019-03-01T12:28:36.924Z,15.4
2019-03-01T12:29:26.327Z,15.4
2019-03-01T12:30:16.417Z,15.4
2019-03-01T12:31:07.699Z,15.4
2019-03-01T12:31:56.634Z,15.4
2019-03-01T12:32:47.166Z,15.4
2019-03-01T12:33:36.397Z,15.4
2019-03-01T12:34:26.980Z,15.4
2019-03-01T12:35:17.315Z,15.5
2019-03-01T12:36:07.400Z,15.5
2019-03-01T12:36:56.329Z,15.5
2019-03-01T12:37:45.864Z,15.6
2019-03-01T12:38:37.047Z,15.5
2019-03-01T12:39:27.437Z,15.6
2019-03-01T12:40:17.157Z,15.5
2019-03-01T12:41:07.474Z,15.6
2019-03-01T12:41:56.944Z,15.6
2019-03-01T12:42:48.236Z,15.5
2019-03-01T12:43:37.966Z,15.5
2019-03-01T12:44:27.467Z,15.5
2019-03-01T12:45:17.540Z,15.5
2019-03-01T12:46:07.546Z,15.4
2019-03-01T12:46:57.629Z,15.5
2019-03-01T12:47:47.696Z,15.5
2019-03-01T12:48:38.023Z,15.5
2019-03-01T12:49:28.343Z,15.5
2019-03-01T12:50:17.855Z,15.4
2019-03-01T12:51:09.017Z,15.4
2019-03-01T12:51:57.726Z,15.4
2019-03-01T12:52:48.588Z,15.4
2019-03-01T12:53:38.603Z,15.4
2019-03-01T12:54:27.835Z,15.4
2019-03-01T12:55:21.118Z,15.4
2019-03-01T12:56:08.541Z,15.4
2019-03-01T12:56:58.308Z,15.4
2019-03-01T12:57:48.191Z,15.4
2019-03-01T12:58:38.175Z,15.4
2019-03-01T12:59:28.503Z,15.4
2019-03-01T13:00:19.385Z,15.4
2019-03-01T13:01:08.662Z,15.4
2019-03-01T13:01:59.227Z,15.4
2019-03-01T13:02:48.385Z,15.4
2019-03-01T13:03:46.241Z,15.4
2019-03-01T13:04:31.367Z,15.4
2019-03-01T13:05:18.551Z,15.4
2019-03-01T13:06:12.422Z,15.4
2019-03-01T13:06:59.225Z,15.4
2019-03-01T13:07:49.479Z,15.4
2019-03-01T13:08:39.704Z,15.4
2019-03-01T13:09:35.621Z,15.4
2019-03-01T13:10:19.830Z,15.3
2019-03-01T13:11:12.428Z,15.3
2019-03-01T13:11:59.683Z,15.3
2019-03-01T13:12:49.633Z,15.3
2019-03-01T13:13:46.363Z,15.3
2019-03-01T13:14:28.998Z,15.3
2019-03-01T13:15:21.483Z,15.3
2019-03-01T13:16:09.659Z,15.3
2019-03-01T13:17:06.228Z,15.3
2019-03-01T13:17:51.626Z,15.3
2019-03-01T13:18:40.153Z,15.3
2019-03-01T13:19:34.716Z,15.3
2019-03-01T13:20:19.127Z,15.3
2019-03-01T13:21:16.686Z,15.3
2019-03-01T13:21:59.536Z,15.3
2019-03-01T13:22:51.012Z,15.3